sensor_id;sensor_type;location;lat;lon;timestamp;temperature;humidity
11764;DHT22;5939;56.522;14.950;2023-06-01T07:39:05;20.60;87.40
11764;DHT22;5939;56.522;14.950;2023-06-01T07:41:34;20.10;93.50
11764;DHT22;5939;56.522;14.950;2023-06-01T07:44:00;20.20;93.30
11764;DHT22;5939;56.522;14.950;2023-06-01T07:46:26;20.30;93.10
11764;DHT22;5939;56.522;14.950;2023-06-01T07:48:51;20.30;93.20
11764;DHT22;5939;56.522;14.950;2023-06-01T07:51:17;20.50;93.30
11764;DHT22;5939;56.522;14.950;2023-06-01T07:53:43;20.50;93.10
11764;DHT22;5939;56.522;14.950;2023-06-01T07:56:09;20.60;93.20
11764;DHT22;5939;56.522;14.950;2023-06-01T07:58:34;20.70;93.20
11764;DHT22;5939;56.522;14.950;2023-06-01T08:01:02;20.80;93.20
11764;DHT22;5939;56.522;14.950;2023-06-01T08:03:28;20.80;93.10
11764;DHT22;5939;56.522;14.950;2023-06-01T08:05:53;20.90;93.00
11764;DHT22;5939;56.522;14.950;2023-06-01T08:08:25;21.00;92.90
11764;DHT22;5939;56.522;14.950;2023-06-01T08:10:51;21.10;93.00
11764;DHT22;5939;56.522;14.950;2023-06-01T08:13:17;21.20;92.90
11764;DHT22;5939;56.522;14.950;2023-06-01T08:15:44;21.20;92.90
11764;DHT22;5939;56.522;14.950;2023-06-01T08:18:13;21.30;93.00
11764;DHT22;5939;56.522;14.950;2023-06-01T08:20:39;21.40;92.90
11764;DHT22;5939;56.522;14.950;2023-06-01T08:23:05;21.50;92.90
11764;DHT22;5939;56.522;14.950;2023-06-01T08:25:31;21.60;92.90
11764;DHT22;5939;56.522;14.950;2023-06-01T08:27:56;21.60;92.90
11764;DHT22;5939;56.522;14.950;2023-06-01T08:30:25;21.70;92.90
11764;DHT22;5939;56.522;14.950;2023-06-01T08:32:51;21.80;92.90
11764;DHT22;5939;56.522;14.950;2023-06-01T08:35:17;21.90;92.90
11764;DHT22;5939;56.522;14.950;2023-06-01T08:37:44;21.90;92.90
11764;DHT22;5939;56.522;14.950;2023-06-01T08:40:10;22.00;92.90
11764;DHT22;5939;56.522;14.950;2023-06-01T08:45:22;22.20;92.70
11764;DHT22;5939;56.522;14.950;2023-06-01T08:47:49;22.20;92.70
11764;DHT22;5939;56.522;14.950;2023-06-01T08:50:17;22.30;92.70
11764;DHT22;5939;56.522;14.950;2023-06-01T08:52:44;22.40;92.70
11764;DHT22;5939;56.522;14.950;2023-06-01T08:55:13;22.50;93.00
11764;DHT22;5939;56.522;14.950;2023-06-01T08:57:42;22.60;92.70
11764;DHT22;5939;56.522;14.950;2023-06-01T09:00:12;22.60;92.70
11764;DHT22;5939;56.522;14.950;2023-06-01T09:02:38;22.70;92.70
11764;DHT22;5939;56.522;14.950;2023-06-01T09:05:05;22.80;92.60
11764;DHT22;5939;56.522;14.950;2023-06-01T09:07:31;22.90;92.50
11764;DHT22;5939;56.522;14.950;2023-06-01T09:09:57;22.90;92.40
11764;DHT22;5939;56.522;14.950;2023-06-01T09:12:28;23.00;92.40
11764;DHT22;5939;56.522;14.950;2023-06-01T09:15:09;23.00;92.40
11764;DHT22;5939;56.522;14.950;2023-06-01T09:17:35;23.10;92.30
11764;DHT22;5939;56.522;14.950;2023-06-01T09:20:02;23.20;92.30
11764;DHT22;5939;56.522;14.950;2023-06-01T09:22:41;23.20;92.20
11764;DHT22;5939;56.522;14.950;2023-06-01T09:25:07;23.30;92.10
11764;DHT22;5939;56.522;14.950;2023-06-01T09:27:52;23.40;92.10
11764;DHT22;5939;56.522;14.950;2023-06-01T09:30:20;23.50;92.40
11764;DHT22;5939;56.522;14.950;2023-06-01T09:32:46;23.50;92.10
11764;DHT22;5939;56.522;14.950;2023-06-01T09:35:39;23.50;92.00
11764;DHT22;5939;56.522;14.950;2023-06-01T09:38:05;23.60;92.00
11764;DHT22;5939;56.522;14.950;2023-06-01T09:40:32;23.70;91.90
11764;DHT22;5939;56.522;14.950;2023-06-01T09:42:57;23.70;91.90
11764;DHT22;5939;56.522;14.950;2023-06-01T09:45:23;23.80;91.80
11764;DHT22;5939;56.522;14.950;2023-06-01T09:47:50;23.90;91.80
11764;DHT22;5939;56.522;14.950;2023-06-01T09:50:32;23.90;91.80
11764;DHT22;5939;56.522;14.950;2023-06-01T09:52:59;24.00;91.80
11764;DHT22;5939;56.522;14.950;2023-06-01T09:55:25;24.10;91.80
11764;DHT22;5939;56.522;14.950;2023-06-01T09:57:51;24.20;91.80
11764;DHT22;5939;56.522;14.950;2023-06-01T10:00:24;24.20;91.80
11764;DHT22;5939;56.522;14.950;2023-06-01T10:02:52;24.30;91.70
11764;DHT22;5939;56.522;14.950;2023-06-01T10:05:19;24.30;91.50
11764;DHT22;5939;56.522;14.950;2023-06-01T10:07:45;24.40;91.60
11764;DHT22;5939;56.522;14.950;2023-06-01T10:10:14;24.50;91.50
11764;DHT22;5939;56.522;14.950;2023-06-01T10:12:40;24.50;91.50
11764;DHT22;5939;56.522;14.950;2023-06-01T10:15:08;24.60;91.40
11764;DHT22;5939;56.522;14.950;2023-06-01T10:17:36;24.60;91.40
11764;DHT22;5939;56.522;14.950;2023-06-01T10:20:08;24.70;91.30
11764;DHT22;5939;56.522;14.950;2023-06-01T10:22:35;24.80;91.30
11764;DHT22;5939;56.522;14.950;2023-06-01T10:25:01;24.80;91.20
11764;DHT22;5939;56.522;14.950;2023-06-01T10:27:35;24.80;91.50
11764;DHT22;5939;56.522;14.950;2023-06-01T10:30:02;24.90;91.20
11764;DHT22;5939;56.522;14.950;2023-06-01T10:32:46;24.90;91.10
11764;DHT22;5939;56.522;14.950;2023-06-01T10:40:35;24.90;91.10
11764;DHT22;5939;56.522;14.950;2023-06-01T10:43:02;24.80;91.10
11764;DHT22;5939;56.522;14.950;2023-06-01T10:48:04;24.80;90.90
11764;DHT22;5939;56.522;14.950;2023-06-01T10:50:30;24.70;90.80
11764;DHT22;5939;56.522;14.950;2023-06-01T10:52:57;24.70;90.70
11764;DHT22;5939;56.522;14.950;2023-06-01T10:55:42;24.70;90.60
11764;DHT22;5939;56.522;14.950;2023-06-01T10:58:19;24.60;90.50
11764;DHT22;5939;56.522;14.950;2023-06-01T11:00:47;24.60;90.60
11764;DHT22;5939;56.522;14.950;2023-06-01T11:03:13;24.60;90.60
11764;DHT22;5939;56.522;14.950;2023-06-01T11:05:49;24.60;90.70
11764;DHT22;5939;56.522;14.950;2023-06-01T11:13:21;24.60;90.60
11764;DHT22;5939;56.522;14.950;2023-06-01T11:18:57;24.70;90.60
11764;DHT22;5939;56.522;14.950;2023-06-01T11:21:25;24.70;90.50
11764;DHT22;5939;56.522;14.950;2023-06-01T11:23:52;24.80;90.40
11764;DHT22;5939;56.522;14.950;2023-06-01T11:26:22;24.80;90.20
11764;DHT22;5939;56.522;14.950;2023-06-01T11:28:51;24.80;90.40
11764;DHT22;5939;56.522;14.950;2023-06-01T11:31:18;24.80;90.20
11764;DHT22;5939;56.522;14.950;2023-06-01T11:33:52;24.90;90.30
11764;DHT22;5939;56.522;14.950;2023-06-01T11:36:25;24.90;90.40
11764;DHT22;5939;56.522;14.950;2023-06-01T11:38:52;24.80;90.40
11764;DHT22;5939;56.522;14.950;2023-06-01T11:41:19;24.80;90.20
11764;DHT22;5939;56.522;14.950;2023-06-01T11:43:56;24.80;90.00
11764;DHT22;5939;56.522;14.950;2023-06-01T11:46:23;24.80;90.00
11764;DHT22;5939;56.522;14.950;2023-06-01T11:49:03;24.70;90.00
11764;DHT22;5939;56.522;14.950;2023-06-01T11:51:35;24.70;90.00
11764;DHT22;5939;56.522;14.950;2023-06-01T11:54:02;24.60;89.80
11764;DHT22;5939;56.522;14.950;2023-06-01T11:56:29;24.60;89.90
11764;DHT22;5939;56.522;14.950;2023-06-01T11:59:03;24.50;89.30
11764;DHT22;5939;56.522;14.950;2023-06-01T12:01:45;24.50;89.20
11764;DHT22;5939;56.522;14.950;2023-06-01T12:04:19;24.50;89.00
11764;DHT22;5939;56.522;14.950;2023-06-01T12:06:45;24.40;89.00
11764;DHT22;5939;56.522;14.950;2023-06-01T12:09:13;24.40;88.80
11764;DHT22;5939;56.522;14.950;2023-06-01T12:11:40;24.40;89.00
11764;DHT22;5939;56.522;14.950;2023-06-01T12:14:09;24.30;88.80
11764;DHT22;5939;56.522;14.950;2023-06-01T12:16:55;24.30;88.70
11764;DHT22;5939;56.522;14.950;2023-06-01T12:19:22;24.20;88.70
11764;DHT22;5939;56.522;14.950;2023-06-01T12:21:52;24.20;88.90
11764;DHT22;5939;56.522;14.950;2023-06-01T12:24:29;24.20;89.00
11764;DHT22;5939;56.522;14.950;2023-06-01T12:26:57;24.20;89.00
11764;DHT22;5939;56.522;14.950;2023-06-01T12:29:47;24.10;89.10
11764;DHT22;5939;56.522;14.950;2023-06-01T12:32:15;24.10;89.00
11764;DHT22;5939;56.522;14.950;2023-06-01T12:34:43;24.00;89.00
11764;DHT22;5939;56.522;14.950;2023-06-01T12:39:38;24.00;89.10
11764;DHT22;5939;56.522;14.950;2023-06-01T12:42:06;23.90;89.10
11764;DHT22;5939;56.522;14.950;2023-06-01T12:44:32;23.90;89.30
11764;DHT22;5939;56.522;14.950;2023-06-01T12:47:02;23.80;89.30
11764;DHT22;5939;56.522;14.950;2023-06-01T12:49:29;23.80;89.30
11764;DHT22;5939;56.522;14.950;2023-06-01T12:51:55;23.80;90.00
11764;DHT22;5939;56.522;14.950;2023-06-01T12:54:20;23.70;89.40
11764;DHT22;5939;56.522;14.950;2023-06-01T12:56:50;23.60;89.50
11764;DHT22;5939;56.522;14.950;2023-06-01T12:59:16;23.60;89.70
11764;DHT22;5939;56.522;14.950;2023-06-01T13:01:42;23.60;89.80
11764;DHT22;5939;56.522;14.950;2023-06-01T13:04:08;23.60;89.80
11764;DHT22;5939;56.522;14.950;2023-06-01T13:06:35;23.50;89.80
11764;DHT22;5939;56.522;14.950;2023-06-01T13:09:01;23.50;89.60
11764;DHT22;5939;56.522;14.950;2023-06-01T13:11:27;23.40;89.60
11764;DHT22;5939;56.522;14.950;2023-06-01T13:13:53;23.40;89.80
11764;DHT22;5939;56.522;14.950;2023-06-01T13:16:20;23.30;89.60
11764;DHT22;5939;56.522;14.950;2023-06-01T13:18:47;23.30;89.60
11764;DHT22;5939;56.522;14.950;2023-06-01T13:21:19;23.30;89.60
11764;DHT22;5939;56.522;14.950;2023-06-01T13:23:45;23.10;89.50
11764;DHT22;5939;56.522;14.950;2023-06-01T13:26:10;23.10;89.20
11764;DHT22;5939;56.522;14.950;2023-06-01T13:28:36;23.00;89.10
11764;DHT22;5939;56.522;14.950;2023-06-01T13:31:02;23.00;89.10
11764;DHT22;5939;56.522;14.950;2023-06-01T13:33:28;22.90;88.90
11764;DHT22;5939;56.522;14.950;2023-06-01T13:35:53;22.90;88.80
11764;DHT22;5939;56.522;14.950;2023-06-01T13:38:19;22.80;88.70
11764;DHT22;5939;56.522;14.950;2023-06-01T13:40:45;22.80;88.80
11764;DHT22;5939;56.522;14.950;2023-06-01T13:43:10;22.70;88.70
11764;DHT22;5939;56.522;14.950;2023-06-01T13:45:36;22.60;88.60
11764;DHT22;5939;56.522;14.950;2023-06-01T13:48:02;22.60;88.50
11764;DHT22;5939;56.522;14.950;2023-06-01T13:50:27;22.50;88.60
11764;DHT22;5939;56.522;14.950;2023-06-01T13:52:53;22.50;88.40
11764;DHT22;5939;56.522;14.950;2023-06-01T13:55:19;22.40;88.40
11764;DHT22;5939;56.522;14.950;2023-06-01T13:57:45;22.30;88.00
11764;DHT22;5939;56.522;14.950;2023-06-01T14:00:11;22.20;88.00
11764;DHT22;5939;56.522;14.950;2023-06-01T14:02:37;22.20;88.00
11764;DHT22;5939;56.522;14.950;2023-06-01T14:05:03;22.10;88.10
11764;DHT22;5939;56.522;14.950;2023-06-01T14:07:29;22.00;87.80
11764;DHT22;5939;56.522;14.950;2023-06-01T14:09:55;22.00;87.90
11764;DHT22;5939;56.522;14.950;2023-06-01T14:12:21;21.90;88.00
11764;DHT22;5939;56.522;14.950;2023-06-01T14:14:47;21.80;88.00
11764;DHT22;5939;56.522;14.950;2023-06-01T14:17:13;21.80;88.20
11764;DHT22;5939;56.522;14.950;2023-06-01T14:19:38;21.70;87.70
11764;DHT22;5939;56.522;14.950;2023-06-01T14:22:04;21.60;87.70
11764;DHT22;5939;56.522;14.950;2023-06-01T14:24:29;21.60;87.70
11764;DHT22;5939;56.522;14.950;2023-06-01T14:26:55;21.50;87.80
11764;DHT22;5939;56.522;14.950;2023-06-01T14:29:21;21.50;87.70
11764;DHT22;5939;56.522;14.950;2023-06-01T14:31:47;21.40;87.60
11764;DHT22;5939;56.522;14.950;2023-06-01T14:34:12;21.40;87.80
11764;DHT22;5939;56.522;14.950;2023-06-01T14:36:38;21.30;87.60
11764;DHT22;5939;56.522;14.950;2023-06-01T14:39:06;21.30;87.60
11764;DHT22;5939;56.522;14.950;2023-06-01T14:41:31;21.20;87.60
11764;DHT22;5939;56.522;14.950;2023-06-01T14:43:57;21.10;87.60
11764;DHT22;5939;56.522;14.950;2023-06-01T14:46:23;21.10;87.80
11764;DHT22;5939;56.522;14.950;2023-06-01T14:48:48;21.00;87.90
11764;DHT22;5939;56.522;14.950;2023-06-01T14:51:14;21.00;87.80
11764;DHT22;5939;56.522;14.950;2023-06-01T14:53:40;20.90;87.60
11764;DHT22;5939;56.522;14.950;2023-06-01T14:56:06;20.90;87.60
11764;DHT22;5939;56.522;14.950;2023-06-01T14:58:32;20.80;87.50
11764;DHT22;5939;56.522;14.950;2023-06-01T15:00:57;20.80;87.30
